Terminal Aerodrome Forecast
Issued by NWS Sterling, VA

Home | Current Version | Previous Version | Text Only | Print | Product List | Glossary On
Versions: 1 2 3 4 5 6 7 8 9 10 11 12 13 14 15 16 17 18 19 20 21 22 23
000
FTUS41 KLWX 010800 AAA
TAFIAD
TAF AMD
KIAD 010857Z 0109/0212 18004KT P6SM BKN050 BKN100
     FM011600 17007KT P6SM -SHRA SCT025 OVC050
     FM020000 15005KT P6SM SCT025 OVC050
     FM020600 09004KT P6SM OVC060
     FM021100 03005KT P6SM BKN040=

USA.gov is the U.S. government's official web portal to all federal, state and local government web resources and services.